sensor_id;sensor_type;location;lat;lon;timestamp;temperature;humidity
9209;DHT22;4639;48.862;9.188;2023-08-12T00:01:41;23.10;99.90
9209;DHT22;4639;48.862;9.188;2023-08-12T00:04:07;23.30;99.90
9209;DHT22;4639;48.862;9.188;2023-08-12T00:06:32;22.80;99.90
9209;DHT22;4639;48.862;9.188;2023-08-12T00:08:58;22.90;99.90
9209;DHT22;4639;48.862;9.188;2023-08-12T00:11:23;22.90;99.90
9209;DHT22;4639;48.862;9.188;2023-08-12T00:13:49;22.90;99.90
9209;DHT22;4639;48.862;9.188;2023-08-12T00:16:14;22.90;99.90
9209;DHT22;4639;48.862;9.188;2023-08-12T00:18:40;22.90;99.90
9209;DHT22;4639;48.862;9.188;2023-08-12T00:21:08;22.80;99.90
9209;DHT22;4639;48.862;9.188;2023-08-12T00:23:39;22.80;99.90
9209;DHT22;4639;48.862;9.188;2023-08-12T00:26:10;22.80;99.90
9209;DHT22;4639;48.862;9.188;2023-08-12T00:28:35;22.80;99.90
9209;DHT22;4639;48.862;9.188;2023-08-12T00:31:01;22.60;99.90
9209;DHT22;4639;48.862;9.188;2023-08-12T00:33:27;22.50;99.90
9209;DHT22;4639;48.862;9.188;2023-08-12T00:35:52;22.40;99.90
9209;DHT22;4639;48.862;9.188;2023-08-12T00:38:18;22.50;99.90
9209;DHT22;4639;48.862;9.188;2023-08-12T00:40:44;22.30;99.90
9209;DHT22;4639;48.862;9.188;2023-08-12T00:43:09;22.30;99.90
9209;DHT22;4639;48.862;9.188;2023-08-12T00:45:35;22.30;99.90
9209;DHT22;4639;48.862;9.188;2023-08-12T00:48:02;22.20;99.90
9209;DHT22;4639;48.862;9.188;2023-08-12T00:50:28;22.30;99.90
9209;DHT22;4639;48.862;9.188;2023-08-12T00:52:54;22.30;99.90
9209;DHT22;4639;48.862;9.188;2023-08-12T00:55:20;22.20;99.90
9209;DHT22;4639;48.862;9.188;2023-08-12T00:57:46;22.20;99.90
9209;DHT22;4639;48.862;9.188;2023-08-12T01:00:12;22.20;99.90
9209;DHT22;4639;48.862;9.188;2023-08-12T01:02:38;22.30;99.90
9209;DHT22;4639;48.862;9.188;2023-08-12T01:05:04;22.20;99.90
9209;DHT22;4639;48.862;9.188;2023-08-12T01:07:30;22.20;99.90
9209;DHT22;4639;48.862;9.188;2023-08-12T01:09:56;22.20;99.90
9209;DHT22;4639;48.862;9.188;2023-08-12T01:12:29;22.10;99.90
9209;DHT22;4639;48.862;9.188;2023-08-12T01:15:05;22.10;99.90
9209;DHT22;4639;48.862;9.188;2023-08-12T01:17:33;22.10;99.90
9209;DHT22;4639;48.862;9.188;2023-08-12T01:20:00;22.10;99.90
9209;DHT22;4639;48.862;9.188;2023-08-12T01:22:27;22.10;99.90
9209;DHT22;4639;48.862;9.188;2023-08-12T01:24:55;22.10;99.90
9209;DHT22;4639;48.862;9.188;2023-08-12T01:27:20;22.20;99.90
9209;DHT22;4639;48.862;9.188;2023-08-12T01:29:49;22.10;99.90
9209;DHT22;4639;48.862;9.188;2023-08-12T01:37:38;21.90;99.90
9209;DHT22;4639;48.862;9.188;2023-08-12T01:40:05;21.80;99.90
9209;DHT22;4639;48.862;9.188;2023-08-12T01:42:35;21.80;99.90
9209;DHT22;4639;48.862;9.188;2023-08-12T01:45:02;21.80;99.90
9209;DHT22;4639;48.862;9.188;2023-08-12T01:47:28;21.80;99.90
9209;DHT22;4639;48.862;9.188;2023-08-12T01:49:54;21.80;99.90
9209;DHT22;4639;48.862;9.188;2023-08-12T01:52:20;21.80;99.90
9209;DHT22;4639;48.862;9.188;2023-08-12T01:54:46;21.70;99.90
9209;DHT22;4639;48.862;9.188;2023-08-12T01:57:11;21.90;99.90
9209;DHT22;4639;48.862;9.188;2023-08-12T01:59:38;21.80;99.90
9209;DHT22;4639;48.862;9.188;2023-08-12T02:02:04;21.90;99.90
9209;DHT22;4639;48.862;9.188;2023-08-12T02:04:30;21.80;99.90
9209;DHT22;4639;48.862;9.188;2023-08-12T02:06:55;21.70;99.90
9209;DHT22;4639;48.862;9.188;2023-08-12T02:09:22;21.60;99.90
9209;DHT22;4639;48.862;9.188;2023-08-12T02:11:48;21.50;99.90
9209;DHT22;4639;48.862;9.188;2023-08-12T02:14:14;21.40;99.90
9209;DHT22;4639;48.862;9.188;2023-08-12T02:16:39;21.40;99.90
9209;DHT22;4639;48.862;9.188;2023-08-12T02:19:05;21.40;99.90
9209;DHT22;4639;48.862;9.188;2023-08-12T02:21:31;21.50;99.90
9209;DHT22;4639;48.862;9.188;2023-08-12T02:23:57;21.30;99.90
9209;DHT22;4639;48.862;9.188;2023-08-12T02:26:25;21.30;99.90
9209;DHT22;4639;48.862;9.188;2023-08-12T02:28:51;21.30;99.90
9209;DHT22;4639;48.862;9.188;2023-08-12T02:31:16;21.30;99.90
9209;DHT22;4639;48.862;9.188;2023-08-12T02:33:42;21.50;99.90
9209;DHT22;4639;48.862;9.188;2023-08-12T02:36:08;21.30;99.90
9209;DHT22;4639;48.862;9.188;2023-08-12T02:38:33;21.30;99.90
9209;DHT22;4639;48.862;9.188;2023-08-12T02:40:59;21.20;99.90
9209;DHT22;4639;48.862;9.188;2023-08-12T02:43:25;21.30;99.90
9209;DHT22;4639;48.862;9.188;2023-08-12T02:45:51;21.30;99.90
9209;DHT22;4639;48.862;9.188;2023-08-12T02:48:16;21.30;99.90
9209;DHT22;4639;48.862;9.188;2023-08-12T02:50:42;21.40;99.90
9209;DHT22;4639;48.862;9.188;2023-08-12T02:53:07;21.40;99.90
9209;DHT22;4639;48.862;9.188;2023-08-12T02:55:33;21.40;99.90
9209;DHT22;4639;48.862;9.188;2023-08-12T02:58:00;21.40;99.90
9209;DHT22;4639;48.862;9.188;2023-08-12T03:00:25;21.30;99.90
9209;DHT22;4639;48.862;9.188;2023-08-12T03:02:51;21.40;99.90
9209;DHT22;4639;48.862;9.188;2023-08-12T03:05:16;21.50;99.90
9209;DHT22;4639;48.862;9.188;2023-08-12T03:07:42;21.40;99.90
9209;DHT22;4639;48.862;9.188;2023-08-12T03:10:08;21.40;99.90
9209;DHT22;4639;48.862;9.188;2023-08-12T03:12:34;21.40;99.90
9209;DHT22;4639;48.862;9.188;2023-08-12T03:17:30;21.40;99.90
9209;DHT22;4639;48.862;9.188;2023-08-12T03:19:57;21.40;99.90
9209;DHT22;4639;48.862;9.188;2023-08-12T03:22:25;21.40;99.90
9209;DHT22;4639;48.862;9.188;2023-08-12T03:24:50;21.40;99.90
9209;DHT22;4639;48.862;9.188;2023-08-12T03:27:16;21.40;99.90
9209;DHT22;4639;48.862;9.188;2023-08-12T03:29:41;21.40;99.90
9209;DHT22;4639;48.862;9.188;2023-08-12T03:32:07;21.40;99.90
9209;DHT22;4639;48.862;9.188;2023-08-12T03:34:32;21.40;99.90
9209;DHT22;4639;48.862;9.188;2023-08-12T03:36:58;21.40;99.90
9209;DHT22;4639;48.862;9.188;2023-08-12T03:39:24;21.50;99.90
9209;DHT22;4639;48.862;9.188;2023-08-12T03:41:49;21.50;99.90
9209;DHT22;4639;48.862;9.188;2023-08-12T03:44:18;21.60;99.90
9209;DHT22;4639;48.862;9.188;2023-08-12T03:46:44;21.50;99.90
9209;DHT22;4639;48.862;9.188;2023-08-12T03:49:09;21.60;99.90
9209;DHT22;4639;48.862;9.188;2023-08-12T03:51:35;21.50;99.90
9209;DHT22;4639;48.862;9.188;2023-08-12T03:54:01;21.50;99.90
9209;DHT22;4639;48.862;9.188;2023-08-12T03:56:26;21.50;99.90
9209;DHT22;4639;48.862;9.188;2023-08-12T03:58:52;21.60;99.90
9209;DHT22;4639;48.862;9.188;2023-08-12T04:01:17;21.60;99.90
9209;DHT22;4639;48.862;9.188;2023-08-12T04:03:43;21.50;99.90
9209;DHT22;4639;48.862;9.188;2023-08-12T04:06:08;21.50;99.90
9209;DHT22;4639;48.862;9.188;2023-08-12T04:08:34;21.60;99.90
9209;DHT22;4639;48.862;9.188;2023-08-12T04:11:00;21.40;99.90
9209;DHT22;4639;48.862;9.188;2023-08-12T04:13:26;21.30;99.90
9209;DHT22;4639;48.862;9.188;2023-08-12T04:15:52;21.20;99.90
9209;DHT22;4639;48.862;9.188;2023-08-12T04:18:18;21.20;99.90
9209;DHT22;4639;48.862;9.188;2023-08-12T04:20:49;21.20;99.90
9209;DHT22;4639;48.862;9.188;2023-08-12T04:23:15;21.30;99.90
9209;DHT22;4639;48.862;9.188;2023-08-12T04:25:43;21.40;99.90
9209;DHT22;4639;48.862;9.188;2023-08-12T04:28:09;21.40;99.90
9209;DHT22;4639;48.862;9.188;2023-08-12T04:30:35;21.40;99.90
9209;DHT22;4639;48.862;9.188;2023-08-12T04:33:00;21.40;99.90
9209;DHT22;4639;48.862;9.188;2023-08-12T04:35:26;21.40;99.90
9209;DHT22;4639;48.862;9.188;2023-08-12T04:37:51;21.50;99.90
9209;DHT22;4639;48.862;9.188;2023-08-12T04:40:17;21.50;99.90
9209;DHT22;4639;48.862;9.188;2023-08-12T04:42:43;21.70;99.90
9209;DHT22;4639;48.862;9.188;2023-08-12T04:45:08;21.60;99.90
9209;DHT22;4639;48.862;9.188;2023-08-12T04:47:34;21.60;99.90
9209;DHT22;4639;48.862;9.188;2023-08-12T04:49:59;21.70;99.90
9209;DHT22;4639;48.862;9.188;2023-08-12T04:52:25;21.60;99.90
9209;DHT22;4639;48.862;9.188;2023-08-12T04:54:53;21.60;99.90
9209;DHT22;4639;48.862;9.188;2023-08-12T04:57:19;21.70;99.90
9209;DHT22;4639;48.862;9.188;2023-08-12T04:59:44;21.70;99.90
9209;DHT22;4639;48.862;9.188;2023-08-12T05:02:10;21.60;99.90
9209;DHT22;4639;48.862;9.188;2023-08-12T05:04:36;21.60;99.90
9209;DHT22;4639;48.862;9.188;2023-08-12T05:07:02;21.60;99.90
9209;DHT22;4639;48.862;9.188;2023-08-12T05:09:27;21.60;99.90
9209;DHT22;4639;48.862;9.188;2023-08-12T05:11:53;21.60;99.90
9209;DHT22;4639;48.862;9.188;2023-08-12T05:14:18;21.40;99.90
9209;DHT22;4639;48.862;9.188;2023-08-12T05:16:44;21.50;99.90
9209;DHT22;4639;48.862;9.188;2023-08-12T05:19:09;21.50;99.90
9209;DHT22;4639;48.862;9.188;2023-08-12T05:21:35;21.60;99.90
9209;DHT22;4639;48.862;9.188;2023-08-12T05:24:00;21.70;99.90
9209;DHT22;4639;48.862;9.188;2023-08-12T05:26:26;21.60;99.90
9209;DHT22;4639;48.862;9.188;2023-08-12T05:28:51;21.60;99.90
9209;DHT22;4639;48.862;9.188;2023-08-12T05:31:17;21.60;99.90
9209;DHT22;4639;48.862;9.188;2023-08-12T05:33:43;21.60;99.90
9209;DHT22;4639;48.862;9.188;2023-08-12T05:36:08;21.50;99.90
9209;DHT22;4639;48.862;9.188;2023-08-12T05:38:34;21.40;99.90
9209;DHT22;4639;48.862;9.188;2023-08-12T05:41:00;21.30;99.90
9209;DHT22;4639;48.862;9.188;2023-08-12T05:43:25;21.20;99.90
9209;DHT22;4639;48.862;9.188;2023-08-12T05:45:51;21.20;99.90
9209;DHT22;4639;48.862;9.188;2023-08-12T05:48:16;21.30;99.90
9209;DHT22;4639;48.862;9.188;2023-08-12T05:50:43;21.30;99.90
9209;DHT22;4639;48.862;9.188;2023-08-12T05:53:08;21.30;99.90
9209;DHT22;4639;48.862;9.188;2023-08-12T05:55:34;21.30;99.90
9209;DHT22;4639;48.862;9.188;2023-08-12T05:58:02;21.40;99.90
9209;DHT22;4639;48.862;9.188;2023-08-12T06:00:28;21.50;99.90
9209;DHT22;4639;48.862;9.188;2023-08-12T06:02:54;21.50;99.90
9209;DHT22;4639;48.862;9.188;2023-08-12T06:05:19;21.70;99.90
9209;DHT22;4639;48.862;9.188;2023-08-12T06:07:45;21.70;99.90
9209;DHT22;4639;48.862;9.188;2023-08-12T06:10:10;21.70;99.90
9209;DHT22;4639;48.862;9.188;2023-08-12T06:12:36;21.60;99.90
9209;DHT22;4639;48.862;9.188;2023-08-12T06:15:02;21.50;99.90
9209;DHT22;4639;48.862;9.188;2023-08-12T06:17:27;21.50;99.90
9209;DHT22;4639;48.862;9.188;2023-08-12T06:19:53;21.50;99.90
9209;DHT22;4639;48.862;9.188;2023-08-12T06:22:18;21.50;99.90
9209;DHT22;4639;48.862;9.188;2023-08-12T06:24:44;21.40;99.90
9209;DHT22;4639;48.862;9.188;2023-08-12T06:27:10;21.30;99.90
9209;DHT22;4639;48.862;9.188;2023-08-12T06:29:35;21.30;99.90
9209;DHT22;4639;48.862;9.188;2023-08-12T06:32:01;21.20;99.90
9209;DHT22;4639;48.862;9.188;2023-08-12T06:34:26;21.20;99.90
9209;DHT22;4639;48.862;9.188;2023-08-12T06:36:52;21.30;99.90
9209;DHT22;4639;48.862;9.188;2023-08-12T06:39:17;21.40;99.90
9209;DHT22;4639;48.862;9.188;2023-08-12T06:41:43;21.30;99.90
9209;DHT22;4639;48.862;9.188;2023-08-12T06:44:08;21.30;99.90
9209;DHT22;4639;48.862;9.188;2023-08-12T06:46:34;21.50;99.90
9209;DHT22;4639;48.862;9.188;2023-08-12T06:48:59;21.40;99.90
9209;DHT22;4639;48.862;9.188;2023-08-12T06:51:25;21.50;99.90
9209;DHT22;4639;48.862;9.188;2023-08-12T06:53:50;21.50;99.90
9209;DHT22;4639;48.862;9.188;2023-08-12T06:56:16;21.80;99.90
9209;DHT22;4639;48.862;9.188;2023-08-12T06:58:41;21.90;99.90
9209;DHT22;4639;48.862;9.188;2023-08-12T07:01:07;22.00;99.90
9209;DHT22;4639;48.862;9.188;2023-08-12T07:03:33;22.00;99.90
9209;DHT22;4639;48.862;9.188;2023-08-12T07:05:58;22.10;99.90
9209;DHT22;4639;48.862;9.188;2023-08-12T07:08:24;22.20;99.90
9209;DHT22;4639;48.862;9.188;2023-08-12T07:10:50;22.30;99.90
9209;DHT22;4639;48.862;9.188;2023-08-12T07:13:15;22.50;99.90
9209;DHT22;4639;48.862;9.188;2023-08-12T07:15:41;22.60;99.90
9209;DHT22;4639;48.862;9.188;2023-08-12T07:18:06;22.70;99.90
9209;DHT22;4639;48.862;9.188;2023-08-12T07:20:32;22.80;99.90
9209;DHT22;4639;48.862;9.188;2023-08-12T07:22:58;22.90;99.90
9209;DHT22;4639;48.862;9.188;2023-08-12T07:25:24;23.10;99.90
9209;DHT22;4639;48.862;9.188;2023-08-12T07:27:49;23.20;99.90
9209;DHT22;4639;48.862;9.188;2023-08-12T07:30:15;23.30;99.90
9209;DHT22;4639;48.862;9.188;2023-08-12T07:32:40;23.50;99.90
9209;DHT22;4639;48.862;9.188;2023-08-12T07:35:06;23.60;99.90
9209;DHT22;4639;48.862;9.188;2023-08-12T07:37:32;23.80;99.90
9209;DHT22;4639;48.862;9.188;2023-08-12T07:39:58;24.00;99.90
9209;DHT22;4639;48.862;9.188;2023-08-12T07:42:23;24.20;99.90
9209;DHT22;4639;48.862;9.188;2023-08-12T07:44:49;24.50;99.90
9209;DHT22;4639;48.862;9.188;2023-08-12T07:47:14;24.50;99.90
9209;DHT22;4639;48.862;9.188;2023-08-12T07:49:41;24.60;99.90
9209;DHT22;4639;48.862;9.188;2023-08-12T07:52:06;24.90;99.90
9209;DHT22;4639;48.862;9.188;2023-08-12T07:54:32;25.10;99.90
9209;DHT22;4639;48.862;9.188;2023-08-12T07:56:57;25.20;99.90
9209;DHT22;4639;48.862;9.188;2023-08-12T07:59:23;25.40;99.90
9209;DHT22;4639;48.862;9.188;2023-08-12T08:01:49;25.50;99.90
9209;DHT22;4639;48.862;9.188;2023-08-12T08:04:14;25.70;99.90
9209;DHT22;4639;48.862;9.188;2023-08-12T08:06:40;25.70;99.90
9209;DHT22;4639;48.862;9.188;2023-08-12T08:09:05;25.80;99.90
9209;DHT22;4639;48.862;9.188;2023-08-12T08:11:31;25.90;99.90
9209;DHT22;4639;48.862;9.188;2023-08-12T08:13:58;26.20;99.90
9209;DHT22;4639;48.862;9.188;2023-08-12T08:16:24;26.50;99.90
9209;DHT22;4639;48.862;9.188;2023-08-12T08:18:50;26.80;99.90
9209;DHT22;4639;48.862;9.188;2023-08-12T08:21:15;27.00;99.90
9209;DHT22;4639;48.862;9.188;2023-08-12T08:23:42;27.30;99.90
9209;DHT22;4639;48.862;9.188;2023-08-12T08:26:08;27.20;99.90
9209;DHT22;4639;48.862;9.188;2023-08-12T08:28:34;27.40;99.90
9209;DHT22;4639;48.862;9.188;2023-08-12T08:30:59;27.60;99.90
9209;DHT22;4639;48.862;9.188;2023-08-12T08:33:26;27.60;99.90
9209;DHT22;4639;48.862;9.188;2023-08-12T08:35:53;27.70;99.90
9209;DHT22;4639;48.862;9.188;2023-08-12T08:38:18;27.70;99.90
9209;DHT22;4639;48.862;9.188;2023-08-12T08:40:44;27.60;99.90
9209;DHT22;4639;48.862;9.188;2023-08-12T08:43:09;27.60;99.90
9209;DHT22;4639;48.862;9.188;2023-08-12T08:45:36;27.50;99.90
9209;DHT22;4639;48.862;9.188;2023-08-12T08:48:03;27.70;99.90
9209;DHT22;4639;48.862;9.188;2023-08-12T08:50:31;27.90;99.90
9209;DHT22;4639;48.862;9.188;2023-08-12T08:52:58;28.30;99.90
9209;DHT22;4639;48.862;9.188;2023-08-12T08:55:25;28.60;99.90
9209;DHT22;4639;48.862;9.188;2023-08-12T08:57:51;29.10;99.90
9209;DHT22;4639;48.862;9.188;2023-08-12T09:00:18;29.10;99.90
9209;DHT22;4639;48.862;9.188;2023-08-12T09:02:46;29.40;99.90
9209;DHT22;4639;48.862;9.188;2023-08-12T09:05:13;29.70;99.90
9209;DHT22;4639;48.862;9.188;2023-08-12T09:07:41;29.60;99.90
9209;DHT22;4639;48.862;9.188;2023-08-12T09:10:07;29.60;99.90
9209;DHT22;4639;48.862;9.188;2023-08-12T09:12:34;29.70;99.90
9209;DHT22;4639;48.862;9.188;2023-08-12T09:14:59;29.80;99.90
9209;DHT22;4639;48.862;9.188;2023-08-12T09:17:25;29.90;99.90
9209;DHT22;4639;48.862;9.188;2023-08-12T09:19:51;30.10;99.90
9209;DHT22;4639;48.862;9.188;2023-08-12T09:22:18;30.20;99.90
9209;DHT22;4639;48.862;9.188;2023-08-12T09:24:44;30.30;99.90
9209;DHT22;4639;48.862;9.188;2023-08-12T09:27:09;30.50;99.90
9209;DHT22;4639;48.862;9.188;2023-08-12T09:29:35;30.60;99.90
9209;DHT22;4639;48.862;9.188;2023-08-12T09:32:11;30.80;99.90
9209;DHT22;4639;48.862;9.188;2023-08-12T09:34:38;30.80;99.90
9209;DHT22;4639;48.862;9.188;2023-08-12T09:37:03;30.90;99.90
9209;DHT22;4639;48.862;9.188;2023-08-12T09:39:29;31.40;99.90
9209;DHT22;4639;48.862;9.188;2023-08-12T09:41:59;31.80;99.90
9209;DHT22;4639;48.862;9.188;2023-08-12T09:44:25;32.10;99.90
9209;DHT22;4639;48.862;9.188;2023-08-12T09:46:56;32.30;99.90
9209;DHT22;4639;48.862;9.188;2023-08-12T09:49:23;32.40;99.90
9209;DHT22;4639;48.862;9.188;2023-08-12T09:51:48;32.60;99.90
9209;DHT22;4639;48.862;9.188;2023-08-12T09:54:16;32.50;99.90
9209;DHT22;4639;48.862;9.188;2023-08-12T09:56:42;32.60;99.90
9209;DHT22;4639;48.862;9.188;2023-08-12T09:59:10;32.40;99.90
9209;DHT22;4639;48.862;9.188;2023-08-12T10:01:38;31.80;99.90
9209;DHT22;4639;48.862;9.188;2023-08-12T10:04:06;31.50;99.90
9209;DHT22;4639;48.862;9.188;2023-08-12T10:06:37;31.30;99.90
9209;DHT22;4639;48.862;9.188;2023-08-12T10:09:04;31.10;99.90
9209;DHT22;4639;48.862;9.188;2023-08-12T10:11:30;30.70;99.90
9209;DHT22;4639;48.862;9.188;2023-08-12T10:13:56;30.40;99.90
9209;DHT22;4639;48.862;9.188;2023-08-12T10:16:22;30.30;99.90
9209;DHT22;4639;48.862;9.188;2023-08-12T10:18:49;30.20;99.90
9209;DHT22;4639;48.862;9.188;2023-08-12T10:21:15;30.20;99.90
9209;DHT22;4639;48.862;9.188;2023-08-12T10:23:43;30.30;99.90
9209;DHT22;4639;48.862;9.188;2023-08-12T10:26:09;30.50;99.90
9209;DHT22;4639;48.862;9.188;2023-08-12T10:28:35;30.70;99.90
9209;DHT22;4639;48.862;9.188;2023-08-12T10:31:04;30.70;99.90
9209;DHT22;4639;48.862;9.188;2023-08-12T10:33:31;30.50;99.90
9209;DHT22;4639;48.862;9.188;2023-08-12T10:35:59;30.30;99.90
9209;DHT22;4639;48.862;9.188;2023-08-12T10:38:25;30.20;99.90
9209;DHT22;4639;48.862;9.188;2023-08-12T10:40:52;30.20;99.90
9209;DHT22;4639;48.862;9.188;2023-08-12T10:43:18;30.20;99.90
9209;DHT22;4639;48.862;9.188;2023-08-12T10:45:48;30.30;99.90
9209;DHT22;4639;48.862;9.188;2023-08-12T10:48:24;30.50;99.90
9209;DHT22;4639;48.862;9.188;2023-08-12T10:50:58;30.90;99.90
9209;DHT22;4639;48.862;9.188;2023-08-12T10:53:28;31.00;99.90
9209;DHT22;4639;48.862;9.188;2023-08-12T10:55:59;31.30;99.90
9209;DHT22;4639;48.862;9.188;2023-08-12T10:58:30;31.50;99.90
9209;DHT22;4639;48.862;9.188;2023-08-12T11:00:56;31.40;99.90
9209;DHT22;4639;48.862;9.188;2023-08-12T11:03:23;31.10;99.90
9209;DHT22;4639;48.862;9.188;2023-08-12T11:05:48;31.00;99.90
9209;DHT22;4639;48.862;9.188;2023-08-12T11:08:14;31.40;99.90
9209;DHT22;4639;48.862;9.188;2023-08-12T11:10:39;31.50;99.90
9209;DHT22;4639;48.862;9.188;2023-08-12T11:13:05;31.90;99.90
9209;DHT22;4639;48.862;9.188;2023-08-12T11:15:40;32.30;99.90
9209;DHT22;4639;48.862;9.188;2023-08-12T11:18:17;32.60;99.90
9209;DHT22;4639;48.862;9.188;2023-08-12T11:20:44;32.50;99.90
9209;DHT22;4639;48.862;9.188;2023-08-12T11:23:10;32.60;99.90
9209;DHT22;4639;48.862;9.188;2023-08-12T11:25:38;32.40;99.90
9209;DHT22;4639;48.862;9.188;2023-08-12T11:28:07;32.10;99.90
9209;DHT22;4639;48.862;9.188;2023-08-12T11:30:33;31.90;99.90
9209;DHT22;4639;48.862;9.188;2023-08-12T11:33:00;31.70;99.90
9209;DHT22;4639;48.862;9.188;2023-08-12T11:35:26;31.50;99.90
9209;DHT22;4639;48.862;9.188;2023-08-12T11:37:54;31.40;99.90
9209;DHT22;4639;48.862;9.188;2023-08-12T11:40:22;31.40;99.90
9209;DHT22;4639;48.862;9.188;2023-08-12T11:42:49;32.10;99.90
9209;DHT22;4639;48.862;9.188;2023-08-12T11:45:17;32.40;99.90
9209;DHT22;4639;48.862;9.188;2023-08-12T11:47:43;32.10;99.90
9209;DHT22;4639;48.862;9.188;2023-08-12T11:50:11;31.90;99.90
9209;DHT22;4639;48.862;9.188;2023-08-12T11:52:37;31.50;99.90
9209;DHT22;4639;48.862;9.188;2023-08-12T11:55:04;31.20;99.90
9209;DHT22;4639;48.862;9.188;2023-08-12T11:57:30;30.70;99.90
9209;DHT22;4639;48.862;9.188;2023-08-12T12:00:00;29.30;99.90
9209;DHT22;4639;48.862;9.188;2023-08-12T12:02:26;27.50;99.90
9209;DHT22;4639;48.862;9.188;2023-08-12T12:04:52;26.60;99.90
9209;DHT22;4639;48.862;9.188;2023-08-12T12:07:25;25.90;99.90
9209;DHT22;4639;48.862;9.188;2023-08-12T12:09:53;25.30;99.90
9209;DHT22;4639;48.862;9.188;2023-08-12T12:12:25;24.80;99.90
9209;DHT22;4639;48.862;9.188;2023-08-12T12:14:55;24.60;99.90
9209;DHT22;4639;48.862;9.188;2023-08-12T12:17:22;24.50;99.90
9209;DHT22;4639;48.862;9.188;2023-08-12T12:19:52;24.30;99.90
9209;DHT22;4639;48.862;9.188;2023-08-12T12:22:18;24.10;99.90
9209;DHT22;4639;48.862;9.188;2023-08-12T12:24:47;23.50;99.90
9209;DHT22;4639;48.862;9.188;2023-08-12T12:27:13;23.20;99.90
9209;DHT22;4639;48.862;9.188;2023-08-12T12:29:39;23.10;99.90
9209;DHT22;4639;48.862;9.188;2023-08-12T12:32:05;23.00;99.90
9209;DHT22;4639;48.862;9.188;2023-08-12T12:34:30;23.00;99.90
9209;DHT22;4639;48.862;9.188;2023-08-12T12:36:56;23.20;99.90
9209;DHT22;4639;48.862;9.188;2023-08-12T12:39:21;23.40;99.90
9209;DHT22;4639;48.862;9.188;2023-08-12T12:41:48;23.00;99.90
9209;DHT22;4639;48.862;9.188;2023-08-12T12:44:14;23.50;99.90
9209;DHT22;4639;48.862;9.188;2023-08-12T12:46:40;23.70;99.90
9209;DHT22;4639;48.862;9.188;2023-08-12T12:49:05;23.90;99.90
9209;DHT22;4639;48.862;9.188;2023-08-12T12:51:31;24.10;99.90
9209;DHT22;4639;48.862;9.188;2023-08-12T12:53:57;24.30;99.90
9209;DHT22;4639;48.862;9.188;2023-08-12T12:56:23;24.50;99.90
9209;DHT22;4639;48.862;9.188;2023-08-12T12:58:48;24.70;99.90
9209;DHT22;4639;48.862;9.188;2023-08-12T13:01:14;24.90;99.90
9209;DHT22;4639;48.862;9.188;2023-08-12T13:03:39;25.20;99.90
9209;DHT22;4639;48.862;9.188;2023-08-12T13:06:05;25.20;99.90
9209;DHT22;4639;48.862;9.188;2023-08-12T13:08:31;25.30;99.90
9209;DHT22;4639;48.862;9.188;2023-08-12T13:10:57;25.40;99.90
9209;DHT22;4639;48.862;9.188;2023-08-12T13:13:23;25.50;99.90
9209;DHT22;4639;48.862;9.188;2023-08-12T13:15:48;25.50;99.90
9209;DHT22;4639;48.862;9.188;2023-08-12T13:18:14;25.70;99.90
9209;DHT22;4639;48.862;9.188;2023-08-12T13:20:40;25.90;99.90
9209;DHT22;4639;48.862;9.188;2023-08-12T13:23:05;26.00;99.90
9209;DHT22;4639;48.862;9.188;2023-08-12T13:25:32;25.50;99.90
9209;DHT22;4639;48.862;9.188;2023-08-12T13:28:02;25.10;99.90
9209;DHT22;4639;48.862;9.188;2023-08-12T13:30:28;24.80;99.90
9209;DHT22;4639;48.862;9.188;2023-08-12T13:32:55;24.60;99.90
9209;DHT22;4639;48.862;9.188;2023-08-12T13:35:21;24.70;99.90
9209;DHT22;4639;48.862;9.188;2023-08-12T13:37:47;24.50;99.90
9209;DHT22;4639;48.862;9.188;2023-08-12T13:40:12;24.50;99.90
9209;DHT22;4639;48.862;9.188;2023-08-12T13:42:40;24.50;99.90
9209;DHT22;4639;48.862;9.188;2023-08-12T13:45:06;24.60;99.90
9209;DHT22;4639;48.862;9.188;2023-08-12T13:47:34;24.60;99.90
9209;DHT22;4639;48.862;9.188;2023-08-12T13:49:59;24.70;99.90
9209;DHT22;4639;48.862;9.188;2023-08-12T13:52:25;24.70;99.90
9209;DHT22;4639;48.862;9.188;2023-08-12T13:54:50;24.80;99.90
9209;DHT22;4639;48.862;9.188;2023-08-12T13:57:16;25.10;99.90
9209;DHT22;4639;48.862;9.188;2023-08-12T13:59:42;25.40;99.90
9209;DHT22;4639;48.862;9.188;2023-08-12T14:02:12;25.50;99.90
9209;DHT22;4639;48.862;9.188;2023-08-12T14:04:38;25.70;99.90
9209;DHT22;4639;48.862;9.188;2023-08-12T14:07:04;26.20;99.90
9209;DHT22;4639;48.862;9.188;2023-08-12T14:09:30;26.00;99.90
9209;DHT22;4639;48.862;9.188;2023-08-12T14:11:56;26.10;99.90
9209;DHT22;4639;48.862;9.188;2023-08-12T14:14:22;26.20;99.90
9209;DHT22;4639;48.862;9.188;2023-08-12T14:16:48;26.30;99.90
9209;DHT22;4639;48.862;9.188;2023-08-12T14:19:14;26.70;99.90
9209;DHT22;4639;48.862;9.188;2023-08-12T14:21:42;27.10;99.90
9209;DHT22;4639;48.862;9.188;2023-08-12T14:24:08;27.50;99.90
9209;DHT22;4639;48.862;9.188;2023-08-12T14:26:34;27.60;99.90
9209;DHT22;4639;48.862;9.188;2023-08-12T14:29:00;27.80;99.90
9209;DHT22;4639;48.862;9.188;2023-08-12T14:31:25;28.10;99.90
9209;DHT22;4639;48.862;9.188;2023-08-12T14:33:51;27.90;99.90
9209;DHT22;4639;48.862;9.188;2023-08-12T14:36:16;28.00;99.90
9209;DHT22;4639;48.862;9.188;2023-08-12T14:38:42;27.80;99.90
9209;DHT22;4639;48.862;9.188;2023-08-12T14:41:07;27.70;99.90
9209;DHT22;4639;48.862;9.188;2023-08-12T14:43:33;27.60;99.90
9209;DHT22;4639;48.862;9.188;2023-08-12T14:45:59;27.50;99.90
9209;DHT22;4639;48.862;9.188;2023-08-12T14:48:24;27.50;99.90
9209;DHT22;4639;48.862;9.188;2023-08-12T14:50:50;27.60;99.90
9209;DHT22;4639;48.862;9.188;2023-08-12T14:53:16;27.80;99.90
9209;DHT22;4639;48.862;9.188;2023-08-12T14:55:41;27.60;99.90
9209;DHT22;4639;48.862;9.188;2023-08-12T14:58:07;27.80;99.90
9209;DHT22;4639;48.862;9.188;2023-08-12T15:00:32;27.80;99.90
9209;DHT22;4639;48.862;9.188;2023-08-12T15:02:59;28.00;99.90
9209;DHT22;4639;48.862;9.188;2023-08-12T15:05:25;28.30;99.90
9209;DHT22;4639;48.862;9.188;2023-08-12T15:07:50;28.20;99.90
9209;DHT22;4639;48.862;9.188;2023-08-12T15:10:16;28.30;99.90
9209;DHT22;4639;48.862;9.188;2023-08-12T15:12:41;28.20;99.90
9209;DHT22;4639;48.862;9.188;2023-08-12T15:15:07;28.00;99.90
9209;DHT22;4639;48.862;9.188;2023-08-12T15:17:32;27.90;99.90
9209;DHT22;4639;48.862;9.188;2023-08-12T15:19:58;27.70;99.90
9209;DHT22;4639;48.862;9.188;2023-08-12T15:22:24;27.60;99.90
9209;DHT22;4639;48.862;9.188;2023-08-12T15:24:49;27.60;99.90
9209;DHT22;4639;48.862;9.188;2023-08-12T15:27:15;27.60;99.90
9209;DHT22;4639;48.862;9.188;2023-08-12T15:29:40;27.50;99.90
9209;DHT22;4639;48.862;9.188;2023-08-12T15:32:07;27.60;99.90
9209;DHT22;4639;48.862;9.188;2023-08-12T15:34:32;27.60;99.90
9209;DHT22;4639;48.862;9.188;2023-08-12T15:36:58;27.60;99.90
9209;DHT22;4639;48.862;9.188;2023-08-12T15:39:24;27.60;99.90
9209;DHT22;4639;48.862;9.188;2023-08-12T15:41:49;27.50;99.90
9209;DHT22;4639;48.862;9.188;2023-08-12T15:44:15;27.50;99.90
9209;DHT22;4639;48.862;9.188;2023-08-12T15:46:41;27.70;99.90
9209;DHT22;4639;48.862;9.188;2023-08-12T15:49:07;27.30;99.90
9209;DHT22;4639;48.862;9.188;2023-08-12T15:51:36;27.20;99.90
9209;DHT22;4639;48.862;9.188;2023-08-12T15:54:02;27.20;99.90
9209;DHT22;4639;48.862;9.188;2023-08-12T15:56:29;27.00;99.90
9209;DHT22;4639;48.862;9.188;2023-08-12T15:58:55;27.00;99.90
9209;DHT22;4639;48.862;9.188;2023-08-12T16:01:20;27.00;99.90
9209;DHT22;4639;48.862;9.188;2023-08-12T16:03:46;26.80;99.90